Time;durP1;ratioP1;P1;durP2;ratioP2;P2;SDS_P1;SDS_P2;PMS_P1;PMS_P2;Temp;Humidity;BMP_temperature;BMP_pressure;BME280_temperature;BME280_humidity;BME280_pressure;Samples;Min_cycle;Max_cycle;Signal;HPM_P1;HPM_P2
2021/09/25 00:01:55;;;;;;;9.60;7.43;;;14.00;74.10;;;12.95;75.36;96216.84;4969493;28;20083;-64
2021/09/25 00:04:21;;;;;;;9.45;7.13;;;14.00;73.90;;;12.94;75.40;96210.75;4959556;28;20035;-64
2021/09/25 00:06:47;;;;;;;9.95;7.18;;;14.00;74.00;;;12.93;75.73;96216.25;4971109;28;20042;-65
2021/09/25 00:09:13;;;;;;;8.63;7.72;;;14.10;73.90;;;12.91;75.69;96218.28;4955298;28;20066;-64
2021/09/25 00:11:38;;;;;;;9.35;7.45;;;13.90;74.00;;;12.88;75.80;96214.16;4951014;28;20097;-64
2021/09/25 00:14:04;;;;;;;8.52;7.63;;;13.90;74.20;;;12.84;75.85;96219.03;4988763;28;20026;-64
2021/09/25 00:16:30;;;;;;;8.65;7.60;;;13.80;74.30;;;12.81;76.04;96219.44;4990005;28;20431;-65
2021/09/25 00:18:57;;;;;;;9.75;7.88;;;13.90;74.40;;;12.77;76.14;96217.41;4991699;28;20728;-65
2021/09/25 00:21:24;;;;;;;8.95;7.68;;;13.70;74.70;;;12.74;76.59;96212.53;4958034;28;20122;-65
2021/09/25 00:23:50;;;;;;;9.55;7.78;;;13.80;74.60;;;12.71;76.39;96208.47;4989599;28;20430;-64
2021/09/25 00:26:15;;;;;;;9.00;7.70;;;13.70;74.90;;;12.68;76.50;96211.50;4989642;28;20122;-64
2021/09/25 00:28:41;;;;;;;11.60;7.95;;;13.70;75.10;;;12.68;76.51;96203.59;4973625;28;20061;-64
2021/09/25 00:31:07;;;;;;;9.80;7.88;;;13.70;74.90;;;12.67;76.61;96195.84;4990799;28;20042;-64
2021/09/25 00:33:33;;;;;;;11.43;7.93;;;13.70;75.00;;;12.64;76.86;96202.34;4973271;28;20089;-64
2021/09/25 00:35:58;;;;;;;9.63;7.97;;;13.70;75.10;;;12.61;77.30;96197.47;4973582;28;20101;-64
2021/09/25 00:38:24;;;;;;;10.50;8.07;;;13.70;75.30;;;12.59;77.02;96204.78;4990201;28;20042;-64
2021/09/25 00:40:50;;;;;;;10.07;7.78;;;13.60;75.40;;;12.55;77.38;96208.81;4988185;28;20109;-64
2021/09/25 00:43:16;;;;;;;13.23;8.30;;;13.60;75.10;;;12.52;76.77;96214.50;4974013;28;20533;-64
2021/09/25 00:45:41;;;;;;;11.80;7.82;;;13.60;75.30;;;12.50;77.07;96219.16;4973840;28;20113;-64
2021/09/25 00:48:07;;;;;;;9.68;7.53;;;13.60;75.40;;;12.48;76.84;96218.56;4971673;28;20137;-64
2021/09/25 00:50:33;;;;;;;10.60;8.05;;;13.60;75.50;;;12.43;77.59;96218.31;4969946;28;20178;-64
2021/09/25 00:52:59;;;;;;;9.35;7.78;;;13.50;75.60;;;12.39;77.40;96219.72;5005513;23;20518;-65
2021/09/25 00:55:24;;;;;;;9.38;7.47;;;13.50;75.90;;;12.38;77.54;96223.38;4982533;28;20057;-64
2021/09/25 00:57:53;;;;;;;8.63;7.28;;;13.50;75.90;;;12.36;78.36;96220.13;4971966;28;20038;-65
2021/09/25 01:00:18;;;;;;;9.32;7.43;;;13.50;75.90;;;12.35;77.83;96218.50;4983946;28;20137;-64
2021/09/25 01:02:44;;;;;;;10.82;8.20;;;13.60;75.80;;;12.33;77.97;96209.97;4964676;28;20058;-65
2021/09/25 01:05:11;;;;;;;9.95;7.18;;;13.50;75.80;;;12.32;78.04;96213.63;4966797;28;20070;-65
2021/09/25 01:07:37;;;;;;;9.60;7.70;;;13.50;75.90;;;12.27;77.84;96215.03;4964405;28;20031;-65
2021/09/25 01:10:03;;;;;;;11.48;7.45;;;13.40;76.10;;;12.27;77.88;96212.38;4938244;28;20030;-65
2021/09/25 01:12:29;;;;;;;12.55;7.63;;;13.40;76.20;;;12.26;77.93;96209.94;4964096;28;20113;-65
2021/09/25 01:14:55;;;;;;;10.82;7.97;;;13.40;76.10;;;12.23;78.97;96216.44;4986567;28;20332;-66
2021/09/25 01:17:21;;;;;;;9.73;7.88;;;13.30;76.50;;;12.20;78.96;96216.78;4971499;28;20530;-65
2021/09/25 01:19:48;;;;;;;10.48;8.20;;;13.20;76.70;;;12.16;79.39;96212.94;4989163;28;20050;-66
2021/09/25 01:22:14;;;;;;;10.05;8.40;;;13.20;76.90;;;12.17;78.70;96205.81;4972039;28;20112;-65
2021/09/25 01:24:40;;;;;;;8.73;7.82;;;13.30;76.90;;;12.17;79.56;96206.63;4989582;28;20042;-65
2021/09/25 01:27:05;;;;;;;9.30;8.30;;;13.30;76.80;;;12.18;79.23;96207.44;4970409;28;20042;-65
2021/09/25 01:29:32;;;;;;;10.65;8.00;;;13.30;76.90;;;12.16;79.60;96199.75;4956102;28;20054;-65
2021/09/25 01:31:57;;;;;;;11.85;8.07;;;13.30;77.00;;;12.16;79.58;96194.47;4969073;28;20030;-65
2021/09/25 01:34:23;;;;;;;9.45;8.20;;;13.30;77.10;;;12.15;79.77;96198.13;4982434;28;20085;-65
2021/09/25 01:36:49;;;;;;;12.05;8.45;;;13.30;77.00;;;12.14;79.64;96200.94;4973331;28;20092;-65
2021/09/25 01:39:15;;;;;;;9.77;8.10;;;13.30;77.10;;;12.13;79.27;96200.13;4969981;28;20031;-65
2021/09/25 01:41:40;;;;;;;9.73;8.13;;;13.30;77.00;;;12.11;79.74;96198.72;4957637;28;20030;-66
2021/09/25 01:44:06;;;;;;;10.00;8.55;;;13.30;77.20;;;12.10;79.52;96200.53;4964538;28;20078;-66
2021/09/25 01:46:32;;;;;;;11.00;8.80;;;13.30;77.20;;;12.10;79.63;96205.81;4986058;28;20121;-65
2021/09/25 01:48:58;;;;;;;10.48;9.07;;;13.30;77.30;;;12.08;80.31;96205.19;4984273;28;20129;-65
2021/09/25 01:51:23;;;;;;;11.50;8.48;;;13.20;77.80;;;12.04;80.00;96200.50;4991778;28;20031;-65
2021/09/25 01:53:49;;;;;;;9.18;8.00;;;13.20;78.20;;;12.04;80.84;96211.88;4969062;28;20027;-65
2021/09/25 01:56:15;;;;;;;9.52;8.52;;;13.20;78.10;;;12.01;81.06;96207.00;4971624;28;20027;-65
2021/09/25 01:58:41;;;;;;;9.98;8.65;;;13.10;78.50;;;12.00;81.56;96208.00;4968837;28;20038;-65
2021/09/25 02:01:09;;;;;;;12.23;8.80;;;13.10;79.30;;;12.00;82.07;96204.53;4985051;28;20043;-65
2021/09/25 02:03:37;;;;;;;9.82;8.43;;;13.10;79.20;;;11.97;81.75;96189.91;4963273;28;20042;-65
2021/09/25 02:06:08;;;;;;;11.00;9.20;;;13.10;79.20;;;11.98;82.43;96202.06;4988326;28;20129;-65
2021/09/25 02:08:34;;;;;;;10.70;8.32;;;13.10;79.10;;;11.95;81.20;96218.28;4969545;28;20046;-65
2021/09/25 02:11:00;;;;;;;10.63;8.77;;;13.10;78.80;;;11.91;82.21;96207.31;4956719;28;20049;-65
2021/09/25 02:13:26;;;;;;;9.93;8.48;;;13.00;78.90;;;11.88;81.62;96201.63;4979808;28;20125;-65
2021/09/25 02:15:52;;;;;;;13.82;8.82;;;13.00;78.80;;;11.87;81.25;96210.53;4988137;28;20027;-66
2021/09/25 02:18:18;;;;;;;11.00;8.77;;;13.10;78.70;;;11.84;81.92;96208.31;4989023;28;20034;-65
2021/09/25 02:20:43;;;;;;;9.23;7.70;;;13.00;79.00;;;11.83;81.41;96206.69;4956608;28;20058;-65
2021/09/25 02:23:09;;;;;;;13.50;8.57;;;13.00;79.10;;;11.82;81.80;96205.88;4972618;28;20089;-65
2021/09/25 02:25:35;;;;;;;9.70;8.43;;;13.00;79.00;;;11.82;81.79;96207.69;4971898;28;20038;-65
2021/09/25 02:28:01;;;;;;;11.45;8.52;;;13.10;78.70;;;11.82;82.88;96210.31;4988154;28;20073;-65
2021/09/25 02:30:27;;;;;;;11.65;8.80;;;13.10;78.80;;;11.80;82.20;96209.72;4971999;28;20038;-65
2021/09/25 02:32:53;;;;;;;11.88;8.52;;;13.00;78.90;;;11.78;81.98;96212.53;4968501;28;20038;-66
2021/09/25 02:35:19;;;;;;;9.15;8.23;;;13.00;78.90;;;11.75;82.19;96207.59;4984727;28;20572;-65
2021/09/25 02:37:46;;;;;;;13.93;9.15;;;13.00;78.80;;;11.74;82.22;96210.41;4953370;28;20372;-65
2021/09/25 02:40:12;;;;;;;11.73;8.77;;;12.90;78.90;;;11.72;82.20;96210.63;4956106;28;20121;-65
2021/09/25 02:42:37;;;;;;;10.50;8.52;;;12.80;79.20;;;11.69;82.21;96207.56;4971471;28;20121;-65
2021/09/25 02:45:04;;;;;;;10.02;9.02;;;12.80;79.60;;;11.67;83.01;96199.84;4937346;28;20146;-65
2021/09/25 02:47:30;;;;;;;11.38;8.85;;;12.80;79.60;;;11.62;83.32;96203.06;4980749;28;20126;-66
2021/09/25 02:49:55;;;;;;;9.60;8.52;;;12.80;79.90;;;11.57;82.83;96216.00;4972018;28;20634;-65
2021/09/25 02:52:21;;;;;;;9.55;8.55;;;12.70;80.40;;;11.56;82.99;96210.94;4971616;28;20030;-65
2021/09/25 02:54:47;;;;;;;9.85;8.85;;;12.70;80.40;;;11.52;83.14;96205.22;4960907;28;20031;-66
2021/09/25 02:57:12;;;;;;;9.82;8.57;;;12.60;81.00;;;11.46;84.29;96213.06;4987015;28;20038;-65
2021/09/25 02:59:38;;;;;;;10.98;8.95;;;12.50;81.30;;;11.43;84.22;96208.19;4972415;28;20433;-64
2021/09/25 03:02:04;;;;;;;12.07;9.90;;;12.60;81.30;;;11.39;84.43;96215.66;4969254;28;20528;-66
2021/09/25 03:04:30;;;;;;;10.52;8.52;;;12.50;81.50;;;11.37;84.92;96212.41;4971560;28;20027;-65
2021/09/25 03:06:55;;;;;;;11.98;8.73;;;12.60;81.40;;;11.39;84.83;96212.22;4969228;28;20140;-65
2021/09/25 03:09:22;;;;;;;10.93;8.95;;;12.60;81.20;;;11.39;84.32;96212.22;4964153;28;20387;-65
2021/09/25 03:11:49;;;;;;;9.57;8.43;;;12.60;81.10;;;11.39;84.81;96207.75;4971436;28;20042;-66
2021/09/25 03:14:15;;;;;;;10.85;9.15;;;12.60;80.80;;;11.39;85.08;96210.41;4969168;28;20102;-66
2021/09/25 03:16:41;;;;;;;10.10;8.30;;;12.60;80.90;;;11.39;84.73;96215.66;4985041;28;20030;-66
2021/09/25 03:19:06;;;;;;;9.43;8.27;;;12.70;80.80;;;11.39;84.98;96209.59;4975517;28;20478;-65
2021/09/25 03:21:32;;;;;;;10.95;8.45;;;12.60;80.70;;;11.36;85.15;96208.16;4971870;28;20386;-65
2021/09/25 03:23:58;;;;;;;9.07;7.97;;;12.70;80.90;;;11.39;85.47;96209.59;4968664;28;20061;-65
2021/09/25 03:26:24;;;;;;;8.95;8.02;;;12.60;80.70;;;11.39;85.22;96205.13;4958066;28;20078;-67
2021/09/25 03:28:49;;;;;;;9.48;8.15;;;12.70;80.60;;;11.37;85.38;96204.50;4946733;28;20039;-67
2021/09/25 03:31:15;;;;;;;9.23;8.20;;;12.60;81.10;;;11.36;85.02;96210.78;4969955;28;20058;-68
2021/09/25 03:33:41;;;;;;;10.18;8.63;;;12.60;81.30;;;11.34;84.84;96199.63;4982274;28;20117;-66
2021/09/25 03:36:07;;;;;;;9.98;8.98;;;12.50;81.30;;;11.25;85.07;96211.28;4986442;28;20042;-68
2021/09/25 03:38:32;;;;;;;9.95;8.85;;;12.30;82.30;;;11.13;86.44;96212.81;4954199;28;20452;-65
2021/09/25 03:41:00;;;;;;;10.05;9.02;;;12.10;83.50;;;11.05;86.72;96211.13;4971029;28;20123;-66
2021/09/25 03:43:26;;;;;;;10.13;9.07;;;12.10;83.70;;;11.02;87.18;96209.69;4975249;28;20034;-65
2021/09/25 03:45:52;;;;;;;10.45;9.35;;;12.10;83.40;;;11.02;87.17;96207.03;4958533;28;20037;-66
2021/09/25 03:48:17;;;;;;;10.30;9.20;;;12.20;83.00;;;11.04;87.15;96204.22;4959179;28;20035;-65
2021/09/25 03:50:43;;;;;;;11.13;8.95;;;12.30;82.50;;;11.05;87.12;96206.66;4974360;28;20050;-65
2021/09/25 03:53:10;;;;;;;9.52;8.52;;;12.40;82.20;;;11.05;86.03;96197.94;4958690;28;20058;-66
2021/09/25 03:55:36;;;;;;;9.90;8.88;;;12.30;82.10;;;11.02;86.75;96206.22;4973436;28;20043;-65
2021/09/25 03:58:01;;;;;;;11.05;8.95;;;12.10;82.60;;;10.98;87.02;96216.31;4988152;28;20129;-66
2021/09/25 04:00:27;;;;;;;11.52;9.07;;;12.10;82.50;;;10.96;86.61;96213.06;4958076;28;20026;-67
2021/09/25 04:02:53;;;;;;;10.18;8.80;;;12.20;82.70;;;10.90;87.50;96205.94;4973278;28;20035;-67
2021/09/25 04:05:20;;;;;;;10.50;8.82;;;12.00;83.10;;;10.89;87.71;96206.94;4956232;28;20046;-67
2021/09/25 04:07:46;;;;;;;9.60;8.43;;;12.00;83.20;;;10.88;86.73;96207.13;4962576;28;20566;-67
2021/09/25 04:10:12;;;;;;;10.23;8.35;;;12.00;83.10;;;10.87;87.47;96198.41;4939340;28;20065;-65
2021/09/25 04:12:38;;;;;;;11.57;8.30;;;12.10;82.70;;;10.88;86.97;96194.78;4971295;28;20574;-65
2021/09/25 04:15:04;;;;;;;9.63;7.72;;;12.10;82.80;;;10.90;87.73;96198.03;4965864;28;20035;-65
2021/09/25 04:17:30;;;;;;;8.52;7.63;;;12.20;82.40;;;10.94;86.64;96198.47;4955316;28;20031;-65
2021/09/25 04:19:56;;;;;;;9.90;8.10;;;12.20;82.10;;;10.94;87.53;96196.66;4968480;28;20403;-65
2021/09/25 04:22:21;;;;;;;11.88;7.80;;;12.20;81.80;;;10.94;86.39;96194.03;4958345;28;20106;-65
2021/09/25 04:24:47;;;;;;;8.73;7.47;;;12.30;81.60;;;10.96;86.79;96196.47;4974596;28;20117;-67
2021/09/25 04:27:13;;;;;;;8.35;7.28;;;12.30;81.60;;;10.97;86.07;96198.91;4990559;28;20523;-64
2021/09/25 04:29:39;;;;;;;8.57;7.60;;;12.30;81.50;;;10.97;86.90;96196.28;4975444;28;20536;-67
2021/09/25 04:32:05;;;;;;;9.82;7.72;;;12.30;81.30;;;10.99;86.44;96207.44;4953402;28;20035;-65
2021/09/25 04:34:31;;;;;;;9.20;7.97;;;12.30;81.10;;;10.95;86.09;96203.56;4984556;28;20035;-65
2021/09/25 04:36:58;;;;;;;10.82;7.13;;;12.20;81.60;;;10.95;85.98;96200.91;4955640;28;20054;-65
2021/09/25 04:39:26;;;;;;;8.60;7.70;;;12.20;81.50;;;10.94;87.05;96194.03;4955051;28;20035;-66
2021/09/25 04:41:53;;;;;;;11.05;7.28;;;12.20;81.30;;;10.94;85.63;96191.41;4955090;28;20062;-66
2021/09/25 04:44:18;;;;;;;8.70;7.45;;;12.30;81.20;;;10.94;87.03;96199.28;4977040;28;20035;-66
2021/09/25 04:46:45;;;;;;;9.02;7.43;;;12.20;81.30;;;10.94;85.78;96198.47;4973909;28;20100;-66
2021/09/25 04:49:10;;;;;;;8.40;7.50;;;12.30;81.20;;;10.92;86.31;96200.47;4948401;28;20406;-66
2021/09/25 04:51:36;;;;;;;9.27;7.60;;;12.20;81.30;;;10.89;85.43;96200.88;4970669;28;20055;-66
2021/09/25 04:54:03;;;;;;;8.52;7.55;;;12.20;81.30;;;10.89;86.77;96196.41;4986826;28;20128;-66
2021/09/25 04:56:31;;;;;;;10.88;6.88;;;12.20;81.20;;;10.88;86.52;96191.34;4974429;28;20029;-66
2021/09/25 04:58:56;;;;;;;10.52;8.27;;;12.10;81.10;;;10.86;86.31;96186.25;4971032;28;20035;-66
2021/09/25 05:01:22;;;;;;;9.07;7.88;;;12.20;81.00;;;10.86;85.55;96193.31;4959655;28;20042;-66
2021/09/25 05:03:48;;;;;;;10.55;8.05;;;12.20;80.90;;;10.85;86.27;96199.59;4981667;28;20077;-67
2021/09/25 05:06:15;;;;;;;8.15;7.35;;;12.20;81.00;;;10.83;86.74;96191.88;4990210;28;20040;-66
2021/09/25 05:08:41;;;;;;;8.18;7.38;;;12.20;80.90;;;10.79;85.44;96185.38;4973932;28;20031;-66
2021/09/25 05:11:07;;;;;;;11.32;7.32;;;12.10;80.80;;;10.82;85.92;96197.34;4973998;28;20105;-66
2021/09/25 05:13:32;;;;;;;7.88;7.07;;;12.20;80.80;;;10.82;86.29;96216.56;4957831;28;20026;-64
2021/09/25 05:15:58;;;;;;;8.05;7.18;;;12.20;80.60;;;10.81;86.01;96219.38;4967912;28;20057;-64
2021/09/25 05:18:24;;;;;;;8.80;7.60;;;12.20;80.70;;;10.82;86.23;96221.81;4971184;28;20122;-65
2021/09/25 05:20:50;;;;;;;8.90;7.20;;;12.20;80.60;;;10.83;85.34;96218.19;4954455;28;20027;-65
2021/09/25 05:23:16;;;;;;;7.65;6.95;;;12.20;80.50;;;10.83;85.19;96223.47;4970671;28;20026;-66
2021/09/25 05:25:42;;;;;;;7.88;6.78;;;12.20;80.30;;;10.82;85.42;96221.81;4954489;28;20043;-65
2021/09/25 05:28:08;;;;;;;9.63;7.50;;;12.10;80.40;;;10.80;85.34;96223.84;4954323;28;20607;-66
2021/09/25 05:30:34;;;;;;;8.43;7.53;;;12.20;80.30;;;10.79;85.34;96227.47;4962847;28;20038;-65
2021/09/25 05:33:00;;;;;;;10.35;7.95;;;12.10;80.30;;;10.78;85.82;96220.56;4976369;28;20383;-65
2021/09/25 05:35:25;;;;;;;10.07;8.07;;;12.10;80.70;;;10.76;85.26;96222.59;4989507;28;20039;-66
2021/09/25 05:37:52;;;;;;;10.05;8.07;;;12.10;80.60;;;10.74;85.71;96224.59;4973265;28;20041;-66
2021/09/25 05:40:18;;;;;;;10.60;8.13;;;12.10;80.60;;;10.76;86.52;96222.59;4989666;28;20113;-66
2021/09/25 05:42:43;;;;;;;8.85;7.65;;;12.10;80.60;;;10.76;86.13;96212.06;4972992;28;20033;-65
2021/09/25 05:45:11;;;;;;;11.02;9.13;;;12.10;80.60;;;10.78;85.63;96217.94;4989324;28;20043;-66
2021/09/25 05:47:37;;;;;;;17.27;15.40;;;12.20;80.60;;;10.80;85.61;96210.69;4971358;28;20033;-66
2021/09/25 05:50:03;;;;;;;22.70;19.30;;;12.30;80.70;;;10.83;86.58;96218.19;4954751;28;20066;-66
2021/09/25 05:52:28;;;;;;;14.27;12.68;;;12.40;80.60;;;10.87;86.78;96222.09;4988736;28;20038;-66
2021/09/25 05:54:54;;;;;;;23.85;18.88;;;12.40;80.40;;;10.90;85.45;96219.09;4973274;28;20464;-66
2021/09/25 05:57:20;;;;;;;10.82;9.40;;;12.40;80.40;;;10.90;86.52;96224.34;4973410;28;20090;-66
2021/09/25 05:59:46;;;;;;;9.93;8.48;;;12.40;80.10;;;10.92;85.68;96227.63;4972443;28;20112;-66
2021/09/25 06:02:12;;;;;;;11.05;9.90;;;12.40;80.40;;;10.96;87.09;96236.75;4971964;28;20042;-66
2021/09/25 06:04:37;;;;;;;12.75;11.43;;;12.50;80.70;;;10.98;85.97;96237.38;4964919;28;20030;-66
2021/09/25 06:07:04;;;;;;;15.40;13.80;;;12.50;80.80;;;11.01;86.49;96223.84;4961460;28;20392;-66
2021/09/25 06:09:30;;;;;;;14.82;12.35;;;12.60;80.90;;;11.06;86.35;96218.00;4972753;28;20054;-66
2021/09/25 06:11:56;;;;;;;10.27;9.20;;;12.70;80.70;;;11.10;86.55;96221.09;4972412;28;20042;-66
2021/09/25 06:14:22;;;;;;;15.75;13.63;;;12.70;80.60;;;11.15;86.38;96222.16;4969675;28;20038;-66
2021/09/25 06:16:48;;;;;;;12.70;11.15;;;12.70;80.80;;;11.22;87.29;96224.84;4969847;28;20054;-66
2021/09/25 06:19:14;;;;;;;17.23;15.55;;;12.80;80.70;;;11.29;86.66;96220.44;4964470;28;20039;-66
2021/09/25 06:21:40;;;;;;;13.52;10.57;;;12.90;80.80;;;11.34;87.44;96236.50;4988112;28;20043;-66
2021/09/25 06:24:06;;;;;;;11.10;8.93;;;13.00;80.90;;;11.39;87.53;96230.66;4988705;28;20042;-65
2021/09/25 06:26:32;;;;;;;12.65;10.05;;;13.00;81.50;;;11.45;88.45;96235.97;4971247;28;20117;-66
2021/09/25 06:28:58;;;;;;;13.20;11.80;;;13.10;81.60;;;11.52;88.09;96225.47;4972962;28;20046;-66
2021/09/25 06:31:23;;;;;;;10.07;7.80;;;13.10;81.60;;;11.57;87.92;96229.19;4987820;28;20085;-66
2021/09/25 06:33:49;;;;;;;7.93;6.80;;;13.20;81.70;;;11.64;89.22;96240.56;4960878;28;20023;-67
2021/09/25 06:36:15;;;;;;;8.90;6.90;;;13.30;82.00;;;11.71;89.13;96232.72;4963727;28;20119;-65
2021/09/25 06:38:40;;;;;;;7.93;6.45;;;13.40;82.20;;;11.81;89.73;96229.78;4976478;28;20039;-66
2021/09/25 06:41:06;;;;;;;7.53;6.05;;;13.60;81.90;;;11.89;89.14;96235.69;4953394;28;20046;-68
2021/09/25 06:43:32;;;;;;;8.85;6.00;;;13.60;81.60;;;11.97;89.58;96237.34;4955803;28;20030;-67
2021/09/25 06:45:58;;;;;;;7.93;5.97;;;13.60;81.60;;;12.05;88.87;96239.84;4960175;28;20698;-67
2021/09/25 06:48:24;;;;;;;8.48;6.05;;;13.80;81.20;;;12.16;88.88;96247.22;4969511;28;20054;-66
2021/09/25 06:50:50;;;;;;;5.85;5.25;;;13.90;80.80;;;12.27;89.28;96249.31;4958485;28;20035;-68
2021/09/25 06:53:15;;;;;;;6.60;5.40;;;14.10;80.20;;;12.39;88.54;96238.19;4969704;28;20133;-65
2021/09/25 06:55:41;;;;;;;6.95;5.65;;;14.30;79.50;;;12.51;88.46;96241.91;4972358;28;20027;-68
2021/09/25 06:58:07;;;;;;;6.70;5.60;;;14.50;79.10;;;12.65;87.74;96235.63;4964834;28;20121;-66
2021/09/25 07:00:33;;;;;;;6.93;5.05;;;14.60;78.10;;;12.82;87.31;96229.00;4982776;28;20497;-69
2021/09/25 07:02:59;;;;;;;6.88;5.03;;;15.00;77.40;;;13.00;86.90;96232.91;4970923;28;20038;-65
2021/09/25 07:05:25;;;;;;;5.47;4.38;;;15.20;76.40;;;13.18;87.07;96225.25;4977589;28;20073;-65
2021/09/25 07:07:50;;;;;;;7.40;5.10;;;15.40;76.10;;;13.38;86.72;96220.78;4973521;28;20045;-66
2021/09/25 07:10:17;;;;;;;5.50;4.65;;;15.70;74.70;;;13.61;84.93;96224.84;4976070;28;20126;-64
2021/09/25 07:12:43;;;;;;;6.05;4.35;;;16.00;73.50;;;13.81;83.99;96225.63;4972638;28;20031;-69
2021/09/25 07:15:09;;;;;;;7.75;4.22;;;16.20;72.70;;;14.02;84.40;96228.00;4975608;28;20035;-65
2021/09/25 07:17:35;;;;;;;9.70;4.70;;;16.40;71.80;;;14.23;83.80;96228.78;4957329;28;20121;-65
2021/09/25 07:20:01;;;;;;;7.30;4.47;;;16.60;71.40;;;14.44;82.57;96233.81;4966018;28;20042;-65
2021/09/25 07:22:27;;;;;;;6.97;5.28;;;16.90;70.20;;;14.66;82.78;96229.03;4984824;28;20062;-65
2021/09/25 07:24:54;;;;;;;4.85;4.35;;;17.30;69.80;;;14.89;82.16;96224.03;4958880;28;20039;-65
2021/09/25 07:27:24;;;;;;;5.18;4.32;;;17.70;69.40;;;15.18;81.36;96216.53;4953623;28;20030;-65
2021/09/25 07:29:50;;;;;;;5.72;4.35;;;18.20;67.20;;;15.47;81.09;96223.84;4955666;28;20038;-67
2021/09/25 07:35:56;;;;;;;4.80;4.07;;;19.10;64.90;;;16.14;79.24;96238.16;4987620;28;20045;-65
2021/09/25 07:38:22;;;;;;;4.35;3.80;;;19.60;63.50;;;16.42;79.20;96240.28;4972025;28;20030;-65
2021/09/25 07:40:51;;;;;;;4.38;3.85;;;20.00;62.70;;;16.68;77.52;96241.03;4990582;28;20509;-65
2021/09/25 07:43:16;;;;;;;5.82;3.55;;;20.20;59.80;;;16.94;76.93;96240.69;4951154;28;20054;-65
2021/09/25 07:45:42;;;;;;;5.43;4.07;;;20.50;59.20;;;17.14;75.32;96238.56;5008728;28;20122;-66
2021/09/25 07:48:08;;;;;;;5.35;4.20;;;20.50;57.70;;;17.33;74.15;96241.16;4984230;28;20074;-66
2021/09/25 07:50:34;;;;;;;5.45;4.05;;;20.70;57.40;;;17.55;72.95;96242.25;4990724;28;20030;-66
2021/09/25 07:52:59;;;;;;;5.05;4.13;;;21.00;56.10;;;17.80;72.74;96238.59;4991215;28;20095;-66
2021/09/25 07:55:25;;;;;;;6.22;3.90;;;21.40;55.40;;;17.99;71.37;96240.13;4991626;28;20043;-66
2021/09/25 07:57:51;;;;;;;4.53;3.50;;;21.40;55.10;;;18.17;70.97;96241.84;4942359;28;20122;-67
2021/09/25 08:00:17;;;;;;;5.32;4.70;;;21.70;55.00;;;18.39;71.84;96242.06;4971256;28;20048;-66
2021/09/25 08:02:43;;;;;;;6.53;4.95;;;21.90;54.70;;;18.58;70.29;96240.84;4958845;28;20363;-66
2021/09/25 08:05:10;;;;;;;9.35;6.88;;;22.10;53.80;;;18.78;70.31;96240.47;4981332;28;20046;-66
2021/09/25 08:07:36;;;;;;;6.47;4.00;;;22.30;53.30;;;18.96;69.79;96243.75;4962338;28;20030;-66
2021/09/25 08:10:04;;;;;;;5.20;3.50;;;22.60;53.80;;;19.21;68.32;96242.59;4968592;28;20526;-65
2021/09/25 08:12:29;;;;;;;6.93;4.90;;;22.70;52.30;;;19.43;68.96;96251.53;4958877;28;20218;-65
2021/09/25 08:14:55;;;;;;;6.72;3.78;;;23.10;52.00;;;19.66;67.91;96249.81;4962180;28;20058;-66
2021/09/25 08:17:21;;;;;;;4.32;3.45;;;23.30;50.80;;;19.84;66.39;96252.22;4974750;28;20499;-67
2021/09/25 08:19:47;;;;;;;8.38;5.82;;;23.40;50.50;;;20.11;67.35;96252.38;4987710;28;20134;-67
2021/09/25 08:22:13;;;;;;;10.77;5.70;;;23.90;50.30;;;20.44;66.13;96251.53;4986640;28;20187;-66
2021/09/25 08:24:39;;;;;;;9.85;6.82;;;24.30;49.70;;;20.75;65.62;96253.53;4991024;28;20093;-67
2021/09/25 08:27:04;;;;;;;4.85;4.00;;;24.60;49.20;;;21.04;64.93;96250.63;4973957;28;20414;-69
2021/09/25 08:29:30;;;;;;;4.47;3.85;;;24.90;47.40;;;21.36;63.79;96256.09;4979601;28;20035;-69
2021/09/25 08:31:56;;;;;;;5.05;4.07;;;25.10;46.80;;;21.63;62.82;96253.38;4978704;28;20414;-69
2021/09/25 08:34:21;;;;;;;5.13;3.67;;;25.50;45.60;;;21.95;63.10;96248.84;4939008;28;20041;-69
2021/09/25 08:36:47;;;;;;;6.32;4.15;;;25.80;45.70;;;22.21;61.11;96249.03;4965317;28;20054;-69
2021/09/25 08:39:13;;;;;;;4.85;3.63;;;25.80;44.00;;;22.38;60.36;96249.66;4958365;28;20030;-69
2021/09/25 08:41:40;;;;;;;6.07;3.75;;;25.90;44.10;;;22.62;60.60;96250.84;4938049;28;20045;-69
2021/09/25 08:44:06;;;;;;;5.55;4.32;;;26.40;44.90;;;22.91;60.12;96248.59;4971005;28;20030;-70
2021/09/25 08:46:33;;;;;;;4.88;4.07;;;26.70;43.30;;;23.14;58.99;96251.88;4970541;28;20105;-70
2021/09/25 08:48:58;;;;;;;9.35;6.80;;;26.60;42.90;;;23.32;57.89;96258.63;4947690;28;20445;-70
2021/09/25 08:51:24;;;;;;;7.05;5.38;;;26.60;42.60;;;23.50;57.86;96256.22;4989236;28;20130;-70
2021/09/25 08:53:50;;;;;;;4.95;3.92;;;26.90;42.20;;;23.67;57.03;96247.97;4973348;28;20566;-70
2021/09/25 08:56:16;;;;;;;7.68;3.95;;;27.00;41.90;;;23.91;56.64;96248.22;4957885;28;20034;-70
2021/09/25 08:58:44;;;;;;;6.15;3.75;;;27.50;41.80;;;24.12;55.71;96240.94;4957991;28;20029;-68
2021/09/25 09:01:19;;;;;;;7.13;4.40;;;27.60;41.10;;;24.43;52.53;96242.50;4970090;28;20514;-69
2021/09/25 09:03:46;;;;;;;10.57;8.95;;;28.00;40.40;;;24.73;54.85;96256.97;4949321;28;20042;-69
2021/09/25 09:06:17;;;;;;;7.22;4.32;;;28.20;40.40;;;24.94;51.72;96246.94;4953979;28;20388;-68
2021/09/25 09:08:46;;;;;;;5.80;4.05;;;28.10;40.00;;;25.11;51.92;96246.56;4970350;28;20096;-69
2021/09/25 09:11:11;;;;;;;4.72;3.85;;;28.10;40.00;;;25.28;52.29;96253.22;4957688;28;20031;-68
2021/09/25 09:13:39;;;;;;;5.75;3.70;;;28.50;39.20;;;25.54;51.94;96245.78;4970417;28;20030;-68
2021/09/25 09:16:07;;;;;;;4.05;3.55;;;28.90;39.50;;;25.87;50.58;96248.81;4964815;28;20065;-69
2021/09/25 09:18:39;;;;;;;6.68;4.45;;;29.20;38.60;;;26.15;48.79;96239.91;4957508;28;20026;-68
2021/09/25 09:21:34;;;;;;;4.82;4.07;;;29.40;37.20;;;26.33;47.29;96229.50;4989783;28;20034;-69
2021/09/25 09:24:04;;;;;;;7.22;3.88;;;29.40;38.20;;;26.53;47.53;96229.31;4986013;28;20122;-68
2021/09/25 09:26:35;;;;;;;7.30;3.83;;;29.90;37.30;;;26.75;47.25;96221.50;4972084;28;20023;-68
2021/09/25 09:29:03;;;;;;;7.25;3.88;;;30.50;36.30;;;26.97;48.54;96217.44;4955572;28;20692;-69
2021/09/25 09:31:29;;;;;;;5.88;4.20;;;30.90;35.80;;;27.19;48.02;96225.81;4969898;28;20118;-68
2021/09/25 09:34:03;;;;;;;6.35;4.22;;;31.30;34.40;;;27.43;44.09;96221.13;4961379;28;20574;-69
2021/09/25 09:36:34;;;;;;;5.03;4.35;;;31.90;33.40;;;27.69;43.76;96220.75;4992761;28;20027;-69
2021/09/25 09:39:15;;;;;;;5.32;3.58;;;32.40;32.70;;;28.01;42.05;96220.75;4989400;28;20109;-69
2021/09/25 09:41:49;;;;;;;5.13;3.40;;;33.00;31.10;;;28.25;44.47;96220.63;4952739;28;20407;-69
2021/09/25 09:44:28;;;;;;;4.95;4.07;;;33.60;30.90;;;28.46;41.64;96212.94;4973470;28;20034;-69
2021/09/25 09:46:57;;;;;;;5.72;4.07;;;33.80;30.30;;;28.74;43.74;96216.44;4974009;28;20037;-69
2021/09/25 09:49:27;;;;;;;4.87;4.10;;;34.60;28.70;;;29.13;43.05;96217.81;4973556;28;20035;-69
2021/09/25 09:51:54;;;;;;;6.15;4.35;;;35.10;27.70;;;29.61;43.48;96218.09;4966852;28;20789;-69
2021/09/25 09:54:35;;;;;;;5.13;3.70;;;35.80;26.70;;;30.15;39.51;96210.81;4973133;28;20054;-69
2021/09/25 09:57:11;;;;;;;7.03;4.07;;;36.60;26.60;;;30.75;38.56;96202.13;4958350;28;20113;-69
2021/09/25 09:59:38;;;;;;;4.75;3.80;;;37.80;25.20;;;31.36;42.18;96200.34;4988730;28;20034;-69
2021/09/25 10:02:04;;;;;;;5.22;4.15;;;39.00;24.20;;;31.93;41.36;96205.63;4962680;28;20031;-69
2021/09/25 10:04:30;;;;;;;3.90;3.35;;;40.00;23.20;;;32.50;40.12;96208.03;4968011;28;20039;-69
2021/09/25 10:06:56;;;;;;;6.07;4.00;;;40.20;22.00;;;33.02;38.24;96199.59;4972965;28;20031;-69
2021/09/25 10:09:27;;;;;;;3.63;3.20;;;40.80;21.60;;;33.55;34.09;96209.03;4972937;28;20042;-69
2021/09/25 10:11:59;;;;;;;6.75;4.00;;;41.30;21.40;;;33.91;34.70;96203.75;4972394;28;20096;-69
2021/09/25 10:14:33;;;;;;;5.55;3.33;;;42.00;20.10;;;34.38;31.77;96198.75;4953846;28;20023;-70
2021/09/25 10:17:04;;;;;;;12.82;3.40;;;42.60;19.70;;;34.86;33.99;96188.25;4966276;28;20026;-69
2021/09/25 10:19:31;;;;;;;4.03;3.55;;;43.30;19.60;;;35.14;33.88;96191.84;4955297;28;20042;-68